sensor_id;sensor_type;location;lat;lon;timestamp;pressure;altitude;pressure_sealevel;temperature;humidity
13367;BME280;6752;52.612;13.630;2023-01-04T00:04:13;101943.37;;;3.90;100.00
13367;BME280;6752;52.612;13.630;2023-01-04T00:09:15;101928.70;;;3.83;100.00
13367;BME280;6752;52.612;13.630;2023-01-04T00:14:17;101914.64;;;3.84;100.00
13367;BME280;6752;52.612;13.630;2023-01-04T00:19:20;101905.27;;;3.84;100.00
13367;BME280;6752;52.612;13.630;2023-01-04T00:24:22;101897.83;;;3.82;100.00
13367;BME280;6752;52.612;13.630;2023-01-04T00:29:25;101895.76;;;3.84;100.00
13367;BME280;6752;52.612;13.630;2023-01-04T00:34:27;101890.29;;;3.85;100.00
13367;BME280;6752;52.612;13.630;2023-01-04T00:39:30;101860.57;;;3.81;100.00
13367;BME280;6752;52.612;13.630;2023-01-04T00:44:32;101862.14;;;3.79;100.00
13367;BME280;6752;52.612;13.630;2023-01-04T00:49:34;101849.28;;;3.77;100.00
13367;BME280;6752;52.612;13.630;2023-01-04T00:54:37;101843.19;;;3.80;100.00
13367;BME280;6752;52.612;13.630;2023-01-04T00:59:39;101847.98;;;3.86;100.00
13367;BME280;6752;52.612;13.630;2023-01-04T01:04:41;101830.83;;;3.82;100.00
13367;BME280;6752;52.612;13.630;2023-01-04T01:09:44;101809.17;;;3.83;100.00
13367;BME280;6752;52.612;13.630;2023-01-04T01:14:46;101801.94;;;3.83;100.00
13367;BME280;6752;52.612;13.630;2023-01-04T01:19:49;101801.95;;;3.92;100.00
13367;BME280;6752;52.612;13.630;2023-01-04T01:24:51;101802.56;;;3.95;100.00
13367;BME280;6752;52.612;13.630;2023-01-04T01:29:54;101797.71;;;4.03;100.00
13367;BME280;6752;52.612;13.630;2023-01-04T01:34:56;101800.68;;;4.05;100.00
13367;BME280;6752;52.612;13.630;2023-01-04T01:39:59;101794.78;;;4.01;100.00
13367;BME280;6752;52.612;13.630;2023-01-04T01:45:03;101799.91;;;3.90;100.00
13367;BME280;6752;52.612;13.630;2023-01-04T01:50:03;101809.73;;;3.95;100.00
13367;BME280;6752;52.612;13.630;2023-01-04T01:55:08;101814.43;;;3.93;100.00
13367;BME280;6752;52.612;13.630;2023-01-04T02:00:11;101810.72;;;3.85;100.00
13367;BME280;6752;52.612;13.630;2023-01-04T02:05:12;101807.52;;;3.86;100.00
13367;BME280;6752;52.612;13.630;2023-01-04T02:10:15;101812.30;;;3.78;100.00
13367;BME280;6752;52.612;13.630;2023-01-04T02:15:17;101790.67;;;3.79;100.00
13367;BME280;6752;52.612;13.630;2023-01-04T02:26:04;101758.54;;;3.72;100.00
13367;BME280;6752;52.612;13.630;2023-01-04T02:36:41;101704.56;;;3.81;100.00
13367;BME280;6752;52.612;13.630;2023-01-04T02:41:49;101679.14;;;3.70;100.00
13367;BME280;6752;52.612;13.630;2023-01-04T02:46:52;101680.38;;;3.76;100.00
13367;BME280;6752;52.612;13.630;2023-01-04T02:51:54;101659.58;;;3.68;100.00
13367;BME280;6752;52.612;13.630;2023-01-04T03:02:19;101647.28;;;3.70;100.00
13367;BME280;6752;52.612;13.630;2023-01-04T03:12:53;101638.87;;;3.87;100.00
13367;BME280;6752;52.612;13.630;2023-01-04T03:17:58;101633.36;;;3.83;100.00
13367;BME280;6752;52.612;13.630;2023-01-04T03:23:06;101634.21;;;3.84;100.00
13367;BME280;6752;52.612;13.630;2023-01-04T03:28:26;101625.23;;;3.88;100.00
13367;BME280;6752;52.612;13.630;2023-01-04T03:33:46;101623.39;;;3.80;100.00
13367;BME280;6752;52.612;13.630;2023-01-04T03:39:20;101591.89;;;3.66;100.00
13367;BME280;6752;52.612;13.630;2023-01-04T03:50:18;101565.45;;;3.57;100.00
13367;BME280;6752;52.612;13.630;2023-01-04T03:55:16;101560.94;;;3.62;100.00
13367;BME280;6752;52.612;13.630;2023-01-04T04:00:18;101545.30;;;3.56;100.00
13367;BME280;6752;52.612;13.630;2023-01-04T04:05:23;101541.53;;;3.58;100.00
13367;BME280;6752;52.612;13.630;2023-01-04T04:10:47;101529.33;;;3.54;100.00
13367;BME280;6752;52.612;13.630;2023-01-04T04:15:46;101505.73;;;3.52;100.00
13367;BME280;6752;52.612;13.630;2023-01-04T04:20:55;101507.78;;;3.63;100.00
13367;BME280;6752;52.612;13.630;2023-01-04T04:25:50;101495.60;;;3.50;100.00
13367;BME280;6752;52.612;13.630;2023-01-04T04:30:52;101480.13;;;3.61;100.00
13367;BME280;6752;52.612;13.630;2023-01-04T04:35:55;101466.97;;;3.58;100.00
13367;BME280;6752;52.612;13.630;2023-01-04T04:40:57;101454.55;;;3.65;100.00
13367;BME280;6752;52.612;13.630;2023-01-04T04:46:17;101443.90;;;3.59;100.00
13367;BME280;6752;52.612;13.630;2023-01-04T04:51:20;101431.19;;;3.61;100.00
13367;BME280;6752;52.612;13.630;2023-01-04T04:56:25;101415.48;;;3.69;100.00
13367;BME280;6752;52.612;13.630;2023-01-04T05:01:29;101401.59;;;3.73;100.00
13367;BME280;6752;52.612;13.630;2023-01-04T05:06:34;101392.75;;;3.84;100.00
13367;BME280;6752;52.612;13.630;2023-01-04T05:11:37;101382.97;;;3.83;100.00
13367;BME280;6752;52.612;13.630;2023-01-04T05:16:57;101376.52;;;3.93;100.00
13367;BME280;6752;52.612;13.630;2023-01-04T05:22:04;101364.98;;;3.96;100.00
13367;BME280;6752;52.612;13.630;2023-01-04T05:27:09;101349.05;;;4.15;100.00
13367;BME280;6752;52.612;13.630;2023-01-04T05:32:11;101337.39;;;4.06;100.00
13367;BME280;6752;52.612;13.630;2023-01-04T05:37:13;101317.78;;;4.21;100.00
13367;BME280;6752;52.612;13.630;2023-01-04T05:42:16;101309.77;;;4.21;100.00
13367;BME280;6752;52.612;13.630;2023-01-04T05:47:27;101282.66;;;4.30;100.00
13367;BME280;6752;52.612;13.630;2023-01-04T05:52:32;101270.02;;;4.35;100.00
13367;BME280;6752;52.612;13.630;2023-01-04T05:57:37;101261.08;;;4.42;100.00
13367;BME280;6752;52.612;13.630;2023-01-04T06:02:42;101250.81;;;4.54;100.00
13367;BME280;6752;52.612;13.630;2023-01-04T06:07:46;101237.37;;;4.70;100.00
13367;BME280;6752;52.612;13.630;2023-01-04T06:12:51;101223.80;;;4.62;100.00
13367;BME280;6752;52.612;13.630;2023-01-04T06:17:54;101217.23;;;4.77;100.00
13367;BME280;6752;52.612;13.630;2023-01-04T06:22:56;101209.21;;;4.76;100.00
13367;BME280;6752;52.612;13.630;2023-01-04T06:27:59;101204.13;;;4.85;100.00
13367;BME280;6752;52.612;13.630;2023-01-04T06:33:01;101194.05;;;4.95;100.00
13367;BME280;6752;52.612;13.630;2023-01-04T06:38:03;101187.23;;;5.00;100.00
13367;BME280;6752;52.612;13.630;2023-01-04T06:43:06;101162.83;;;5.00;100.00
13367;BME280;6752;52.612;13.630;2023-01-04T06:48:08;101164.42;;;5.02;100.00
13367;BME280;6752;52.612;13.630;2023-01-04T06:53:10;101154.34;;;5.12;100.00
13367;BME280;6752;52.612;13.630;2023-01-04T06:58:13;101141.06;;;5.21;100.00
13367;BME280;6752;52.612;13.630;2023-01-04T07:03:15;101130.77;;;5.21;100.00
13367;BME280;6752;52.612;13.630;2023-01-04T07:08:18;101114.72;;;5.35;100.00
13367;BME280;6752;52.612;13.630;2023-01-04T07:13:21;101106.84;;;5.56;100.00
13367;BME280;6752;52.612;13.630;2023-01-04T07:18:23;101096.09;;;5.60;100.00
13367;BME280;6752;52.612;13.630;2023-01-04T07:23:25;101069.95;;;5.63;100.00
13367;BME280;6752;52.612;13.630;2023-01-04T07:28:27;101068.03;;;5.83;100.00
13367;BME280;6752;52.612;13.630;2023-01-04T07:33:50;101068.50;;;5.95;100.00
13367;BME280;6752;52.612;13.630;2023-01-04T07:38:53;101056.81;;;6.06;100.00
13367;BME280;6752;52.612;13.630;2023-01-04T07:43:55;101054.70;;;6.05;100.00
13367;BME280;6752;52.612;13.630;2023-01-04T07:48:58;101039.64;;;6.18;100.00
13367;BME280;6752;52.612;13.630;2023-01-04T07:54:02;101018.69;;;6.30;100.00
13367;BME280;6752;52.612;13.630;2023-01-04T07:59:05;101011.73;;;6.32;100.00
13367;BME280;6752;52.612;13.630;2023-01-04T08:04:11;100995.21;;;6.34;100.00
13367;BME280;6752;52.612;13.630;2023-01-04T08:09:13;100990.66;;;6.42;100.00
13367;BME280;6752;52.612;13.630;2023-01-04T08:14:15;100984.52;;;6.37;100.00
13367;BME280;6752;52.612;13.630;2023-01-04T08:19:18;100977.77;;;6.44;100.00
13367;BME280;6752;52.612;13.630;2023-01-04T08:24:23;100963.25;;;6.49;100.00
13367;BME280;6752;52.612;13.630;2023-01-04T08:29:25;100947.88;;;6.52;100.00
13367;BME280;6752;52.612;13.630;2023-01-04T08:34:27;100958.16;;;6.50;100.00
13367;BME280;6752;52.612;13.630;2023-01-04T08:39:29;100957.41;;;6.63;100.00
13367;BME280;6752;52.612;13.630;2023-01-04T08:44:31;100961.25;;;6.79;100.00
13367;BME280;6752;52.612;13.630;2023-01-04T08:49:34;100954.04;;;6.68;100.00
13367;BME280;6752;52.612;13.630;2023-01-04T08:54:36;100938.66;;;6.72;100.00
13367;BME280;6752;52.612;13.630;2023-01-04T08:59:39;100927.45;;;6.86;100.00
13367;BME280;6752;52.612;13.630;2023-01-04T09:04:41;100941.20;;;6.92;100.00
13367;BME280;6752;52.612;13.630;2023-01-04T09:09:44;100930.01;;;6.98;100.00
13367;BME280;6752;52.612;13.630;2023-01-04T09:14:46;100932.97;;;6.85;100.00
13367;BME280;6752;52.612;13.630;2023-01-04T09:19:48;100908.84;;;6.87;100.00
13367;BME280;6752;52.612;13.630;2023-01-04T09:24:51;100908.71;;;7.06;100.00
13367;BME280;6752;52.612;13.630;2023-01-04T09:29:53;100917.97;;;7.04;100.00
13367;BME280;6752;52.612;13.630;2023-01-04T09:34:58;100890.67;;;7.13;100.00
13367;BME280;6752;52.612;13.630;2023-01-04T09:40:01;100876.92;;;7.14;100.00
13367;BME280;6752;52.612;13.630;2023-01-04T09:45:19;100872.14;;;7.16;100.00
13367;BME280;6752;52.612;13.630;2023-01-04T09:50:24;100863.27;;;7.29;100.00
13367;BME280;6752;52.612;13.630;2023-01-04T09:55:39;100847.18;;;7.24;100.00
13367;BME280;6752;52.612;13.630;2023-01-04T10:00:42;100836.34;;;7.35;100.00
13367;BME280;6752;52.612;13.630;2023-01-04T10:05:45;100832.71;;;7.38;100.00
13367;BME280;6752;52.612;13.630;2023-01-04T10:16:14;100802.10;;;7.20;100.00
13367;BME280;6752;52.612;13.630;2023-01-04T10:26:33;100774.07;;;7.34;100.00
13367;BME280;6752;52.612;13.630;2023-01-04T10:36:40;100741.08;;;7.48;100.00
13367;BME280;6752;52.612;13.630;2023-01-04T10:41:55;100735.95;;;7.42;100.00
13367;BME280;6752;52.612;13.630;2023-01-04T10:47:03;100738.66;;;7.60;100.00
13367;BME280;6752;52.612;13.630;2023-01-04T10:52:09;100732.78;;;7.56;100.00
13367;BME280;6752;52.612;13.630;2023-01-04T10:57:22;100726.20;;;7.54;100.00
13367;BME280;6752;52.612;13.630;2023-01-04T11:07:43;100704.59;;;7.54;100.00
13367;BME280;6752;52.612;13.630;2023-01-04T11:12:42;100693.12;;;7.72;100.00
13367;BME280;6752;52.612;13.630;2023-01-04T11:17:49;100685.81;;;7.73;100.00
13367;BME280;6752;52.612;13.630;2023-01-04T11:28:46;100659.53;;;7.80;100.00
13367;BME280;6752;52.612;13.630;2023-01-04T11:33:18;100654.04;;;7.81;100.00
13367;BME280;6752;52.612;13.630;2023-01-04T11:43:22;100637.75;;;7.81;100.00
13367;BME280;6752;52.612;13.630;2023-01-04T11:48:46;100641.44;;;7.94;100.00
13367;BME280;6752;52.612;13.630;2023-01-04T11:53:45;100624.11;;;7.95;100.00
13367;BME280;6752;52.612;13.630;2023-01-04T12:04:15;100597.18;;;8.00;100.00
13367;BME280;6752;52.612;13.630;2023-01-04T12:09:18;100583.95;;;8.07;100.00
13367;BME280;6752;52.612;13.630;2023-01-04T12:14:21;100566.00;;;8.10;100.00
13367;BME280;6752;52.612;13.630;2023-01-04T12:19:22;100563.06;;;8.18;100.00
13367;BME280;6752;52.612;13.630;2023-01-04T12:24:26;100561.61;;;8.15;100.00
13367;BME280;6752;52.612;13.630;2023-01-04T12:30:03;100552.63;;;8.21;100.00
13367;BME280;6752;52.612;13.630;2023-01-04T12:35:05;100544.48;;;8.21;100.00
13367;BME280;6752;52.612;13.630;2023-01-04T12:45:46;100531.34;;;8.28;100.00
13367;BME280;6752;52.612;13.630;2023-01-04T12:56:12;100510.54;;;8.48;100.00
13367;BME280;6752;52.612;13.630;2023-01-04T13:01:25;100475.55;;;8.45;100.00
13367;BME280;6752;52.612;13.630;2023-01-04T13:06:26;100496.55;;;8.57;100.00
13367;BME280;6752;52.612;13.630;2023-01-04T13:11:50;100483.80;;;8.58;100.00
13367;BME280;6752;52.612;13.630;2023-01-04T13:16:54;100482.13;;;8.57;100.00
13367;BME280;6752;52.612;13.630;2023-01-04T13:21:51;100452.34;;;8.59;100.00
13367;BME280;6752;52.612;13.630;2023-01-04T13:26:54;100460.28;;;9.12;100.00
13367;BME280;6752;52.612;13.630;2023-01-04T13:32:11;100460.25;;;9.00;100.00
13367;BME280;6752;52.612;13.630;2023-01-04T13:42:36;100437.34;;;8.95;100.00
13367;BME280;6752;52.612;13.630;2023-01-04T13:47:38;100434.44;;;8.93;100.00
13367;BME280;6752;52.612;13.630;2023-01-04T13:52:42;100435.05;;;8.95;100.00
13367;BME280;6752;52.612;13.630;2023-01-04T13:58:04;100427.55;;;8.91;100.00
13367;BME280;6752;52.612;13.630;2023-01-04T14:08:11;100417.80;;;8.96;100.00
13367;BME280;6752;52.612;13.630;2023-01-04T14:13:17;100405.97;;;9.02;100.00
13367;BME280;6752;52.612;13.630;2023-01-04T14:18:26;100410.57;;;9.02;100.00
13367;BME280;6752;52.612;13.630;2023-01-04T14:23:28;100421.58;;;9.14;100.00
13367;BME280;6752;52.612;13.630;2023-01-04T14:28:33;100402.80;;;9.20;100.00
13367;BME280;6752;52.612;13.630;2023-01-04T14:44:16;100380.97;;;9.34;100.00
13367;BME280;6752;52.612;13.630;2023-01-04T14:49:18;100372.37;;;9.37;100.00
13367;BME280;6752;52.612;13.630;2023-01-04T14:54:21;100367.13;;;9.39;100.00
13367;BME280;6752;52.612;13.630;2023-01-04T14:59:23;100360.98;;;9.35;100.00
13367;BME280;6752;52.612;13.630;2023-01-04T15:04:25;100362.87;;;9.50;100.00
13367;BME280;6752;52.612;13.630;2023-01-04T15:09:28;100346.71;;;9.55;100.00
13367;BME280;6752;52.612;13.630;2023-01-04T15:14:33;100344.34;;;9.62;100.00
13367;BME280;6752;52.612;13.630;2023-01-04T15:19:35;100334.17;;;9.63;100.00
13367;BME280;6752;52.612;13.630;2023-01-04T15:24:40;100331.20;;;9.68;100.00
13367;BME280;6752;52.612;13.630;2023-01-04T15:29:43;100329.30;;;9.72;100.00
13367;BME280;6752;52.612;13.630;2023-01-04T15:34:49;100327.72;;;9.82;100.00
13367;BME280;6752;52.612;13.630;2023-01-04T15:39:51;100327.30;;;9.82;100.00
13367;BME280;6752;52.612;13.630;2023-01-04T15:44:56;100317.52;;;9.78;100.00
13367;BME280;6752;52.612;13.630;2023-01-04T15:49:58;100308.06;;;9.68;100.00
13367;BME280;6752;52.612;13.630;2023-01-04T15:55:03;100296.80;;;9.86;100.00
13367;BME280;6752;52.612;13.630;2023-01-04T16:00:07;100288.25;;;9.73;100.00
13367;BME280;6752;52.612;13.630;2023-01-04T16:05:12;100277.78;;;9.74;100.00
13367;BME280;6752;52.612;13.630;2023-01-04T16:10:14;100270.06;;;9.89;100.00
13367;BME280;6752;52.612;13.630;2023-01-04T16:15:20;100276.95;;;9.70;100.00
13367;BME280;6752;52.612;13.630;2023-01-04T16:20:40;100266.05;;;9.95;100.00
13367;BME280;6752;52.612;13.630;2023-01-04T16:26:01;100253.59;;;10.02;100.00
13367;BME280;6752;52.612;13.630;2023-01-04T16:30:54;100251.13;;;9.88;100.00
13367;BME280;6752;52.612;13.630;2023-01-04T16:36:00;100233.75;;;9.98;100.00
13367;BME280;6752;52.612;13.630;2023-01-04T16:41:02;100230.25;;;9.91;100.00
13367;BME280;6752;52.612;13.630;2023-01-04T16:46:13;100212.53;;;9.85;100.00
13367;BME280;6752;52.612;13.630;2023-01-04T16:51:13;100220.25;;;9.97;100.00
13367;BME280;6752;52.612;13.630;2023-01-04T16:56:19;100213.91;;;10.09;100.00
13367;BME280;6752;52.612;13.630;2023-01-04T17:01:22;100210.19;;;10.13;100.00
13367;BME280;6752;52.612;13.630;2023-01-04T17:06:30;100192.26;;;10.15;100.00
13367;BME280;6752;52.612;13.630;2023-01-04T17:11:35;100188.97;;;10.22;100.00
13367;BME280;6752;52.612;13.630;2023-01-04T17:16:37;100166.02;;;10.29;100.00
13367;BME280;6752;52.612;13.630;2023-01-04T17:21:43;100156.61;;;10.34;100.00
13367;BME280;6752;52.612;13.630;2023-01-04T17:26:45;100151.80;;;10.42;100.00
13367;BME280;6752;52.612;13.630;2023-01-04T17:31:54;100145.23;;;10.47;100.00
13367;BME280;6752;52.612;13.630;2023-01-04T17:36:57;100137.12;;;10.49;100.00
13367;BME280;6752;52.612;13.630;2023-01-04T17:41:59;100122.97;;;10.61;100.00
13367;BME280;6752;52.612;13.630;2023-01-04T17:47:01;100117.52;;;10.61;100.00
13367;BME280;6752;52.612;13.630;2023-01-04T17:52:03;100101.20;;;10.79;100.00
13367;BME280;6752;52.612;13.630;2023-01-04T17:57:06;100104.39;;;10.76;100.00
13367;BME280;6752;52.612;13.630;2023-01-04T18:02:14;100109.67;;;10.74;100.00
13367;BME280;6752;52.612;13.630;2023-01-04T18:07:18;100110.85;;;10.84;100.00
13367;BME280;6752;52.612;13.630;2023-01-04T18:12:20;100102.04;;;10.97;100.00
13367;BME280;6752;52.612;13.630;2023-01-04T18:17:23;100111.87;;;11.04;100.00
13367;BME280;6752;52.612;13.630;2023-01-04T18:22:25;100107.36;;;11.03;100.00
13367;BME280;6752;52.612;13.630;2023-01-04T18:27:27;100107.36;;;11.03;100.00
13367;BME280;6752;52.612;13.630;2023-01-04T18:32:30;100085.67;;;11.14;100.00
13367;BME280;6752;52.612;13.630;2023-01-04T18:37:33;100090.45;;;11.21;100.00
13367;BME280;6752;52.612;13.630;2023-01-04T18:42:35;100096.44;;;11.27;100.00
13367;BME280;6752;52.612;13.630;2023-01-04T18:47:37;100084.66;;;11.18;100.00
13367;BME280;6752;52.612;13.630;2023-01-04T18:52:39;100090.25;;;11.31;100.00
13367;BME280;6752;52.612;13.630;2023-01-04T18:57:42;100080.16;;;11.44;100.00
13367;BME280;6752;52.612;13.630;2023-01-04T19:02:44;100052.04;;;11.57;100.00
13367;BME280;6752;52.612;13.630;2023-01-04T19:07:47;100060.19;;;11.61;100.00
13367;BME280;6752;52.612;13.630;2023-01-04T19:12:49;100065.98;;;11.58;100.00
13367;BME280;6752;52.612;13.630;2023-01-04T19:17:51;100064.30;;;11.49;100.00
13367;BME280;6752;52.612;13.630;2023-01-04T19:22:55;100061.67;;;11.60;100.00
13367;BME280;6752;52.612;13.630;2023-01-04T19:27:57;100059.55;;;11.36;100.00
13367;BME280;6752;52.612;13.630;2023-01-04T19:33:02;100052.12;;;11.40;100.00
13367;BME280;6752;52.612;13.630;2023-01-04T19:38:04;100057.70;;;11.39;100.00
13367;BME280;6752;52.612;13.630;2023-01-04T19:43:07;100052.00;;;11.41;100.00
13367;BME280;6752;52.612;13.630;2023-01-04T19:48:09;100054.59;;;11.41;100.00
13367;BME280;6752;52.612;13.630;2023-01-04T19:53:11;100043.47;;;11.37;100.00
13367;BME280;6752;52.612;13.630;2023-01-04T19:58:15;100044.58;;;11.33;100.00
13367;BME280;6752;52.612;13.630;2023-01-04T20:03:17;100035.69;;;11.31;100.00
13367;BME280;6752;52.612;13.630;2023-01-04T20:08:20;100035.67;;;11.17;100.00
13367;BME280;6752;52.612;13.630;2023-01-04T20:13:22;100033.91;;;11.05;100.00
13367;BME280;6752;52.612;13.630;2023-01-04T20:18:24;100028.45;;;11.05;100.00
13367;BME280;6752;52.612;13.630;2023-01-04T20:23:29;100026.93;;;10.98;100.00
13367;BME280;6752;52.612;13.630;2023-01-04T20:28:32;100035.47;;;10.95;100.00
13367;BME280;6752;52.612;13.630;2023-01-04T20:33:34;100029.29;;;10.88;100.00
13367;BME280;6752;52.612;13.630;2023-01-04T20:38:41;100032.40;;;10.92;100.00
13367;BME280;6752;52.612;13.630;2023-01-04T20:43:42;100029.48;;;10.96;100.00
13367;BME280;6752;52.612;13.630;2023-01-04T20:48:47;99998.95;;;10.85;100.00
13367;BME280;6752;52.612;13.630;2023-01-04T20:53:50;100034.13;;;11.10;100.00
13367;BME280;6752;52.612;13.630;2023-01-04T20:58:52;100038.41;;;11.05;100.00
13367;BME280;6752;52.612;13.630;2023-01-04T21:03:54;100052.25;;;10.96;100.00
13367;BME280;6752;52.612;13.630;2023-01-04T21:08:57;100041.22;;;10.96;100.00
13367;BME280;6752;52.612;13.630;2023-01-04T21:13:59;100039.98;;;10.96;100.00
13367;BME280;6752;52.612;13.630;2023-01-04T21:19:01;100025.05;;;10.92;100.00
13367;BME280;6752;52.612;13.630;2023-01-04T21:24:04;100022.30;;;10.98;100.00
13367;BME280;6752;52.612;13.630;2023-01-04T21:29:06;100020.35;;;10.84;100.00
13367;BME280;6752;52.612;13.630;2023-01-04T21:34:09;100017.37;;;11.03;100.00
13367;BME280;6752;52.612;13.630;2023-01-04T21:39:11;100005.32;;;11.08;100.00
13367;BME280;6752;52.612;13.630;2023-01-04T21:44:14;100018.42;;;11.08;100.00
13367;BME280;6752;52.612;13.630;2023-01-04T21:49:16;99987.84;;;11.06;100.00
13367;BME280;6752;52.612;13.630;2023-01-04T21:54:19;99984.56;;;11.18;100.00
13367;BME280;6752;52.612;13.630;2023-01-04T21:59:21;99994.69;;;11.20;100.00
13367;BME280;6752;52.612;13.630;2023-01-04T22:04:26;100006.03;;;11.15;100.00
13367;BME280;6752;52.612;13.630;2023-01-04T22:09:35;100010.23;;;11.08;100.00
13367;BME280;6752;52.612;13.630;2023-01-04T22:14:40;100013.33;;;11.06;100.00
13367;BME280;6752;52.612;13.630;2023-01-04T22:19:43;100009.48;;;11.04;100.00
13367;BME280;6752;52.612;13.630;2023-01-04T22:24:48;99998.48;;;10.94;100.00
13367;BME280;6752;52.612;13.630;2023-01-04T22:29:50;100011.24;;;10.90;100.00
13367;BME280;6752;52.612;13.630;2023-01-04T22:34:56;100005.95;;;10.86;100.00
13367;BME280;6752;52.612;13.630;2023-01-04T22:40:04;100002.88;;;10.77;100.00
13367;BME280;6752;52.612;13.630;2023-01-04T22:45:09;99997.36;;;10.80;100.00
13367;BME280;6752;52.612;13.630;2023-01-04T22:50:11;99974.98;;;10.72;100.00
13367;BME280;6752;52.612;13.630;2023-01-04T22:55:14;99983.82;;;10.71;100.00
13367;BME280;6752;52.612;13.630;2023-01-04T23:00:16;99997.33;;;10.72;100.00
13367;BME280;6752;52.612;13.630;2023-01-04T23:05:21;99997.33;;;10.72;100.00
13367;BME280;6752;52.612;13.630;2023-01-04T23:10:24;99989.73;;;10.74;100.00
13367;BME280;6752;52.612;13.630;2023-01-04T23:15:26;99981.14;;;10.74;100.00
13367;BME280;6752;52.612;13.630;2023-01-04T23:20:29;99985.11;;;10.74;100.00
13367;BME280;6752;52.612;13.630;2023-01-04T23:25:33;99983.98;;;10.79;100.00
13367;BME280;6752;52.612;13.630;2023-01-04T23:30:39;99984.15;;;10.81;100.00
13367;BME280;6752;52.612;13.630;2023-01-04T23:35:42;99983.98;;;10.79;100.00
13367;BME280;6752;52.612;13.630;2023-01-04T23:40:47;99982.86;;;10.77;100.00
13367;BME280;6752;52.612;13.630;2023-01-04T23:45:49;99973.50;;;10.73;100.00
13367;BME280;6752;52.612;13.630;2023-01-04T23:50:55;99985.23;;;10.74;100.00
13367;BME280;6752;52.612;13.630;2023-01-04T23:56:00;99983.98;;;10.79;100.00
